Terminal Aerodrome Forecast
Issued by NWS Tallahassee, FL

Home | Current Version | Previous Version | Text Only | Print | Product List | Glossary On
Versions: 1 2 3 4 5 6 7 8 9 10 11 12 13 14 15 16 17 18 19 20 21 22 23
000
FTUS42 KTAE 201400 AAB
TAFTLH
TAF AMD
KTLH 201422Z 2014/2112 02008KT P6SM BKN014
      TEMPO 2014/2018 5SM BR BKN009
     FM202100 02007KT P6SM BKN050
     FM210100 06005KT P6SM SCT250=

USA.gov is the U.S. government's official web portal to all federal, state and local government web resources and services.